Time;durP1;ratioP1;P1;durP2;ratioP2;P2;SDS_P1;SDS_P2;PMS_P1;PMS_P2;Temp;Humidity;BMP_temperature;BMP_pressure;BME280_temperature;BME280_humidity;BME280_pressure;Samples;Min_cycle;Max_cycle;Signal;HPM_P1;HPM_P2
2021/03/07 00:00:33;;;;;;;6.63;4.50;;;1.70;99.90;;;;;;5008669;28;20389;-71
2021/03/07 00:02:59;;;;;;;7.00;4.82;;;1.90;99.90;;;;;;5007812;28;20488;-70
2021/03/07 00:05:25;;;;;;;5.67;4.73;;;2.20;99.90;;;;;;5008799;28;20475;-67
2021/03/07 00:07:52;;;;;;;6.83;5.13;;;1.60;99.90;;;;;;5010879;28;20496;-67
2021/03/07 00:10:20;;;;;;;7.30;5.40;;;1.90;99.90;;;;;;5008072;28;20741;-67
2021/03/07 00:12:47;;;;;;;5.53;4.20;;;1.60;99.90;;;;;;5010264;28;20714;-68
2021/03/07 00:15:14;;;;;;;5.68;4.65;;;2.10;99.90;;;;;;5008289;28;20500;-68
2021/03/07 00:17:41;;;;;;;6.53;4.50;;;1.40;99.90;;;;;;5007608;28;20439;-68
2021/03/07 00:20:10;;;;;;;7.38;4.70;;;1.50;99.90;;;;;;5008199;28;20401;-68
2021/03/07 00:22:36;;;;;;;6.57;4.70;;;1.40;99.90;;;;;;5007874;28;20448;-72
2021/03/07 00:25:04;;;;;;;6.90;5.03;;;2.00;99.90;;;;;;5026586;28;20420;-68
2021/03/07 00:27:30;;;;;;;5.60;4.15;;;1.60;99.90;;;;;;5009733;28;20889;-67
2021/03/07 00:29:56;;;;;;;5.67;4.70;;;2.00;99.90;;;;;;5011725;28;20421;-68
2021/03/07 00:32:21;;;;;;;5.40;4.50;;;1.70;99.90;;;;;;5004429;28;20451;-68
2021/03/07 00:34:47;;;;;;;6.40;4.93;;;2.00;99.90;;;;;;5007380;28;20471;-68
2021/03/07 00:37:13;;;;;;;6.22;5.05;;;1.70;99.90;;;;;;5007791;28;20396;-67
2021/03/07 00:39:38;;;;;;;5.70;5.10;;;2.00;99.90;;;;;;5009563;28;20377;-67
2021/03/07 00:42:04;;;;;;;6.03;4.50;;;1.40;99.90;;;;;;5011331;28;20425;-68
2021/03/07 00:44:31;;;;;;;5.55;4.72;;;1.40;99.90;;;;;;5011208;28;20385;-67
2021/03/07 00:46:57;;;;;;;4.93;4.05;;;1.50;99.90;;;;;;5010777;28;20424;-67
2021/03/07 00:49:27;;;;;;;7.20;4.65;;;1.50;99.90;;;;;;5010883;28;20397;-67
2021/03/07 00:51:53;;;;;;;5.00;4.10;;;2.00;99.90;;;;;;5010421;28;20380;-67
2021/03/07 00:54:19;;;;;;;5.25;4.03;;;1.40;99.90;;;;;;5011375;28;20381;-67
2021/03/07 00:56:45;;;;;;;5.40;3.70;;;1.60;99.90;;;;;;5010746;28;20411;-68
2021/03/07 00:59:11;;;;;;;7.18;4.60;;;2.00;99.90;;;;;;5010276;28;20442;-67
2021/03/07 01:01:37;;;;;;;5.47;4.43;;;1.80;99.90;;;;;;5011038;28;20377;-72
2021/03/07 01:04:04;;;;;;;6.17;4.00;;;1.50;99.90;;;;;;5011168;28;20468;-67
2021/03/07 01:06:30;;;;;;;5.70;4.17;;;1.30;99.90;;;;;;5011215;28;20401;-67
2021/03/07 01:08:56;;;;;;;5.67;4.30;;;1.80;99.90;;;;;;5010178;28;21011;-67
2021/03/07 01:11:22;;;;;;;5.20;4.30;;;2.20;99.90;;;;;;5011020;28;20385;-67
2021/03/07 01:13:47;;;;;;;5.20;4.20;;;1.70;99.90;;;;;;5010289;28;20385;-67
2021/03/07 01:16:13;;;;;;;4.43;3.70;;;1.60;99.90;;;;;;5010967;28;20527;-67
2021/03/07 01:18:38;;;;;;;7.67;4.30;;;1.40;99.90;;;;;;5010627;28;20473;-72
2021/03/07 01:21:04;;;;;;;4.77;4.10;;;2.10;99.90;;;;;;5010905;28;20405;-67
2021/03/07 01:23:32;;;;;;;4.72;3.88;;;1.90;99.90;;;;;;5010809;28;20388;-67
2021/03/07 01:25:58;;;;;;;5.00;4.00;;;1.80;99.90;;;;;;5009966;28;20416;-67
2021/03/07 01:28:24;;;;;;;4.50;4.00;;;2.10;99.90;;;;;;5010688;28;20443;-67
2021/03/07 01:30:49;;;;;;;5.23;4.10;;;3.10;99.90;;;;;;5010034;28;20391;-67
2021/03/07 01:33:15;;;;;;;7.28;4.35;;;2.20;99.90;;;;;;4991322;28;20418;-67
2021/03/07 01:35:41;;;;;;;5.40;4.38;;;2.80;99.90;;;;;;4990600;28;20800;-71
2021/03/07 01:38:07;;;;;;;5.10;4.30;;;2.20;99.90;;;;;;4991359;28;20874;-67
2021/03/07 01:40:53;;;;;;;4.80;3.70;;;2.10;99.90;;;;;;4991199;28;20391;-67
2021/03/07 01:43:21;;;;;;;4.28;3.50;;;1.80;99.90;;;;;;4990759;28;20799;-67
2021/03/07 01:45:46;;;;;;;6.47;3.90;;;1.90;99.90;;;;;;4990308;28;20509;-67
2021/03/07 01:48:14;;;;;;;4.60;4.07;;;1.90;99.90;;;;;;4991085;28;20465;-67
2021/03/07 01:50:43;;;;;;;6.03;4.70;;;2.20;99.90;;;;;;4990556;28;20394;-71
2021/03/07 01:53:09;;;;;;;6.35;4.22;;;1.80;99.90;;;;;;4991302;28;20394;-66
2021/03/07 01:55:37;;;;;;;6.03;3.75;;;2.30;99.90;;;;;;4991407;28;20477;-67
2021/03/07 01:58:27;;;;;;;5.57;4.50;;;3.40;99.90;;;;;;4988694;28;20450;-68
2021/03/07 02:00:53;;;;;;;5.73;4.30;;;2.20;99.90;;;;;;4990247;28;20874;-67
2021/03/07 02:03:19;;;;;;;5.78;4.30;;;2.50;99.90;;;;;;4990938;28;20393;-66
2021/03/07 02:05:47;;;;;;;5.55;4.45;;;2.50;99.90;;;;;;5004802;28;20814;-67
2021/03/07 02:08:15;;;;;;;7.03;4.60;;;3.40;99.90;;;;;;4991091;28;20402;-67
2021/03/07 02:10:44;;;;;;;5.43;4.32;;;2.60;99.90;;;;;;4993285;28;20469;-71
2021/03/07 02:13:20;;;;;;;6.13;4.20;;;2.70;99.90;;;;;;4994505;28;20855;-67
2021/03/07 02:15:50;;;;;;;6.63;4.80;;;2.10;99.90;;;;;;4994055;28;20391;-67
2021/03/07 02:18:17;;;;;;;4.55;3.75;;;3.00;99.90;;;;;;4994429;28;20386;-66
2021/03/07 02:20:58;;;;;;;4.53;4.13;;;2.50;99.90;;;;;;4994036;28;20386;-70
2021/03/07 02:23:29;;;;;;;5.00;3.88;;;3.20;99.90;;;;;;4994344;28;20477;-67
2021/03/07 02:25:55;;;;;;;7.20;4.90;;;2.70;99.90;;;;;;4993783;28;20857;-67
2021/03/07 02:28:26;;;;;;;8.88;4.53;;;2.40;99.90;;;;;;4994564;28;20394;-67
2021/03/07 02:30:53;;;;;;;7.78;4.80;;;2.20;99.90;;;;;;4993827;28;20451;-67
2021/03/07 02:33:24;;;;;;;5.65;4.45;;;2.50;99.90;;;;;;5013953;28;20737;-67
2021/03/07 02:35:58;;;;;;;8.02;4.43;;;2.90;99.90;;;;;;5013193;28;20534;-68
2021/03/07 02:38:25;;;;;;;6.75;4.53;;;2.70;99.90;;;;;;5012594;28;20392;-67
2021/03/07 02:40:55;;;;;;;6.38;4.80;;;3.60;99.90;;;;;;5013294;28;20388;-68
2021/03/07 02:43:22;;;;;;;4.68;4.10;;;3.50;99.90;;;;;;5029219;28;20400;-67
2021/03/07 02:45:49;;;;;;;5.30;4.20;;;2.60;99.90;;;;;;5012891;28;20443;-67
2021/03/07 02:48:21;;;;;;;6.00;4.57;;;2.90;99.90;;;;;;5013523;28;20376;-67
2021/03/07 02:50:48;;;;;;;6.15;4.40;;;3.70;99.90;;;;;;5012680;28;20849;-67
2021/03/07 02:53:25;;;;;;;5.73;4.17;;;2.80;99.90;;;;;;5013427;28;21002;-67
2021/03/07 02:56:04;;;;;;;7.57;4.43;;;2.60;99.90;;;;;;5012494;28;20403;-67
2021/03/07 02:58:32;;;;;;;5.15;4.50;;;3.30;99.90;;;;;;5013569;28;20913;-67
2021/03/07 03:01:01;;;;;;;5.95;4.13;;;3.00;99.90;;;;;;5012671;28;20407;-67
2021/03/07 03:03:31;;;;;;;5.55;4.50;;;2.90;99.90;;;;;;5013465;28;20464;-67
2021/03/07 03:05:58;;;;;;;5.43;4.20;;;3.20;99.90;;;;;;5012526;28;20439;-67
2021/03/07 03:08:25;;;;;;;5.50;4.50;;;3.50;99.90;;;;;;5013385;28;20405;-67
2021/03/07 03:10:51;;;;;;;5.05;4.30;;;3.20;99.90;;;;;;5012769;28;20707;-67
2021/03/07 03:13:19;;;;;;;5.17;4.30;;;2.90;99.90;;;;;;5013095;28;20841;-67
2021/03/07 03:15:46;;;;;;;5.40;4.20;;;3.50;99.90;;;;;;5013067;28;20479;-72
2021/03/07 03:18:13;;;;;;;6.10;4.32;;;3.10;99.90;;;;;;5013030;28;20389;-67
2021/03/07 03:20:39;;;;;;;6.60;4.40;;;4.10;99.90;;;;;;5012336;28;20433;-67
2021/03/07 03:23:05;;;;;;;5.20;4.35;;;4.60;99.90;;;;;;5012237;28;20395;-67
2021/03/07 03:25:31;;;;;;;6.20;4.40;;;3.10;99.90;;;;;;5012897;28;20416;-67
2021/03/07 03:27:58;;;;;;;5.82;4.20;;;2.80;99.90;;;;;;5012396;28;20393;-67
2021/03/07 03:30:25;;;;;;;5.75;4.40;;;2.80;99.90;;;;;;5012727;28;20928;-67
2021/03/07 03:32:51;;;;;;;7.40;4.60;;;2.80;99.90;;;;;;5027022;28;20421;-67
2021/03/07 03:35:18;;;;;;;6.25;4.35;;;3.80;99.90;;;;;;5012772;28;20737;-67
2021/03/07 03:37:46;;;;;;;6.03;3.80;;;3.00;99.90;;;;;;5012744;28;20380;-67
2021/03/07 03:40:23;;;;;;;5.47;4.50;;;3.40;99.90;;;;;;5012414;28;20388;-68
2021/03/07 03:43:00;;;;;;;6.60;4.95;;;2.80;99.90;;;;;;5011961;28;20381;-70
2021/03/07 03:45:27;;;;;;;5.95;4.18;;;4.20;99.90;;;;;;5012499;28;20485;-68
2021/03/07 03:47:58;;;;;;;8.05;4.40;;;3.30;99.90;;;;;;5011830;28;20377;-69
2021/03/07 03:50:26;;;;;;;6.50;4.40;;;3.50;99.90;;;;;;5012562;28;20701;-68
2021/03/07 03:52:52;;;;;;;6.70;4.22;;;3.00;99.90;;;;;;5011537;28;20749;-68
2021/03/07 03:55:25;;;;;;;4.97;4.10;;;2.90;99.90;;;;;;5011031;28;20393;-68
2021/03/07 03:58:03;;;;;;;5.85;4.32;;;3.20;99.90;;;;;;5011447;28;20482;-69
2021/03/07 04:00:30;;;;;;;6.60;3.70;;;3.20;99.90;;;;;;5012143;28;20430;-68
2021/03/07 04:02:58;;;;;;;4.60;4.10;;;3.70;99.90;;;;;;5011657;28;20895;-68
2021/03/07 04:05:26;;;;;;;7.05;4.80;;;4.10;99.90;;;;;;5012434;28;20421;-68
2021/03/07 04:07:52;;;;;;;4.88;4.25;;;3.70;99.90;;;;;;5011260;28;20833;-68
2021/03/07 04:10:19;;;;;;;8.90;4.43;;;2.90;99.90;;;;;;5011979;28;20467;-68
2021/03/07 04:12:46;;;;;;;5.50;3.83;;;3.40;99.90;;;;;;5011955;28;20413;-68
2021/03/07 04:15:15;;;;;;;4.63;4.00;;;3.50;99.90;;;;;;5011726;28;20393;-68
2021/03/07 04:17:42;;;;;;;5.20;3.97;;;3.00;99.90;;;;;;5012111;28;20472;-68
2021/03/07 04:20:08;;;;;;;5.60;5.00;;;3.60;99.90;;;;;;5011312;28;21053;-68
2021/03/07 04:22:35;;;;;;;4.30;3.67;;;2.80;99.90;;;;;;5011983;28;20389;-68
2021/03/07 04:25:04;;;;;;;6.40;4.50;;;3.00;99.90;;;;;;5011024;28;20745;-68
2021/03/07 04:27:30;;;;;;;4.93;4.03;;;3.00;99.90;;;;;;5012033;28;20467;-68
2021/03/07 04:29:56;;;;;;;4.80;4.20;;;4.70;99.90;;;;;;5011056;28;20725;-68
2021/03/07 04:32:22;;;;;;;7.03;4.80;;;4.50;99.90;;;;;;5011579;28;20404;-68
2021/03/07 04:34:48;;;;;;;5.75;4.72;;;3.90;99.90;;;;;;5011493;28;20420;-72
2021/03/07 04:37:14;;;;;;;6.28;4.47;;;3.20;99.90;;;;;;5009902;28;20869;-67
2021/03/07 04:39:40;;;;;;;6.43;5.20;;;4.70;99.90;;;;;;5011721;28;20436;-67
2021/03/07 04:42:05;;;;;;;6.10;4.57;;;4.00;99.90;;;;;;5010725;28;20388;-67
2021/03/07 04:44:31;;;;;;;8.00;4.82;;;3.50;99.90;;;;;;5011676;28;20388;-67
2021/03/07 04:46:57;;;;;;;6.88;5.13;;;4.00;99.90;;;;;;5010355;28;20424;-67
2021/03/07 04:49:23;;;;;;;6.70;4.78;;;3.60;99.90;;;;;;5011774;28;20396;-67
2021/03/07 04:51:50;;;;;;;6.10;5.15;;;3.00;99.90;;;;;;5010990;28;20381;-73
2021/03/07 04:54:15;;;;;;;6.93;5.75;;;2.90;99.90;;;;;;5011009;28;20396;-67
2021/03/07 04:56:41;;;;;;;7.97;5.70;;;3.00;99.90;;;;;;5011476;28;20500;-67
2021/03/07 04:59:07;;;;;;;6.90;5.60;;;3.40;99.90;;;;;;5010266;28;20380;-68
2021/03/07 05:01:35;;;;;;;6.30;5.53;;;4.50;99.90;;;;;;4999789;28;20396;-69
2021/03/07 05:04:02;;;;;;;8.45;6.18;;;3.30;99.90;;;;;;5003345;28;21308;-68
2021/03/07 05:06:27;;;;;;;8.57;6.40;;;3.60;99.90;;;;;;5001608;28;20905;-68
2021/03/07 05:08:53;;;;;;;6.33;5.10;;;3.90;99.90;;;;;;4999870;28;20523;-71
2021/03/07 05:11:22;;;;;;;7.27;6.17;;;3.30;99.90;;;;;;4999110;28;20404;-68
2021/03/07 05:13:48;;;;;;;8.10;6.10;;;3.00;99.90;;;;;;5002139;28;20865;-69
2021/03/07 05:16:16;;;;;;;7.65;6.60;;;4.00;99.90;;;;;;5014483;28;20393;-68
2021/03/07 05:18:43;;;;;;;8.55;5.82;;;3.40;99.90;;;;;;5001274;28;20424;-69
2021/03/07 05:21:08;;;;;;;8.00;6.18;;;4.00;99.90;;;;;;4999332;28;20380;-70
2021/03/07 05:23:34;;;;;;;6.28;5.57;;;3.70;99.90;;;;;;5000904;28;20395;-68
2021/03/07 05:26:00;;;;;;;8.70;6.40;;;3.20;99.90;;;;;;5000034;28;20609;-70
2021/03/07 05:28:25;;;;;;;7.40;5.27;;;3.30;99.90;;;;;;5002321;28;20389;-70
2021/03/07 05:30:51;;;;;;;6.60;4.43;;;4.00;99.90;;;;;;4998603;28;20873;-71
2021/03/07 05:33:17;;;;;;;5.83;5.23;;;4.00;99.90;;;;;;4999957;28;20967;-71
2021/03/07 05:35:43;;;;;;;6.60;4.90;;;4.10;99.90;;;;;;5000572;28;20746;-69
2021/03/07 05:38:09;;;;;;;6.70;4.30;;;3.80;99.90;;;;;;5000268;28;21164;-67
2021/03/07 05:40:35;;;;;;;5.85;5.25;;;3.50;99.90;;;;;;4998682;28;21045;-70
2021/03/07 05:43:04;;;;;;;7.83;5.50;;;3.30;99.90;;;;;;5001171;28;21177;-68
2021/03/07 05:45:30;;;;;;;6.70;4.77;;;3.50;99.90;;;;;;5000998;28;20481;-68
2021/03/07 05:47:56;;;;;;;6.38;5.30;;;4.00;99.90;;;;;;4999609;28;20927;-71
2021/03/07 05:50:22;;;;;;;6.00;4.88;;;3.60;99.90;;;;;;4999808;28;20420;-70
2021/03/07 05:52:49;;;;;;;5.20;4.70;;;2.90;99.90;;;;;;5001866;28;20396;-67
2021/03/07 05:55:15;;;;;;;6.57;4.93;;;3.80;99.90;;;;;;4999549;28;20388;-68
2021/03/07 05:57:45;;;;;;;6.97;5.20;;;4.00;99.90;;;;;;5000664;28;20463;-68
2021/03/07 06:00:12;;;;;;;5.20;4.50;;;3.90;99.90;;;;;;4998302;28;20393;-70
2021/03/07 06:02:37;;;;;;;6.50;4.67;;;2.90;99.90;;;;;;4997654;28;20480;-67
2021/03/07 06:05:03;;;;;;;5.53;4.40;;;2.90;99.90;;;;;;4999328;28;20430;-71
2021/03/07 06:07:29;;;;;;;4.53;3.90;;;2.90;99.90;;;;;;5001628;28;20385;-68
2021/03/07 06:10:23;;;;;;;5.87;4.77;;;4.60;99.90;;;;;;4999373;28;20384;-71
2021/03/07 06:12:57;;;;;;;5.78;4.43;;;2.80;99.90;;;;;;4999899;28;21468;-67
2021/03/07 06:15:23;;;;;;;5.88;4.90;;;3.10;99.90;;;;;;5000455;28;20412;-70
2021/03/07 06:17:49;;;;;;;6.18;4.18;;;3.40;99.90;;;;;;5001572;28;20392;-69
2021/03/07 06:20:17;;;;;;;5.57;4.80;;;2.70;99.90;;;;;;4998746;28;20385;-68
2021/03/07 06:22:56;;;;;;;6.00;4.50;;;2.60;99.90;;;;;;4999564;28;20420;-70
2021/03/07 06:25:23;;;;;;;7.18;5.43;;;2.80;99.90;;;;;;5000588;28;20466;-70
2021/03/07 06:27:49;;;;;;;5.50;4.90;;;3.20;99.90;;;;;;5001816;28;20396;-70
2021/03/07 06:30:24;;;;;;;7.95;4.82;;;3.30;99.90;;;;;;4997610;28;20599;-68
2021/03/07 06:32:55;;;;;;;6.00;4.45;;;2.60;99.90;;;;;;4999669;28;20477;-69
2021/03/07 06:35:26;;;;;;;5.97;5.13;;;4.00;99.90;;;;;;5001163;28;20844;-69
2021/03/07 06:37:55;;;;;;;6.68;4.50;;;2.80;99.90;;;;;;5007721;28;20880;-68
2021/03/07 06:40:25;;;;;;;5.70;4.32;;;2.50;99.90;;;;;;4996966;28;20459;-67
2021/03/07 06:42:51;;;;;;;5.63;4.47;;;2.60;99.90;;;;;;5000776;28;20527;-70
2021/03/07 06:45:16;;;;;;;6.97;4.90;;;2.10;99.90;;;;;;5000896;28;20413;-67
2021/03/07 06:47:57;;;;;;;5.63;5.00;;;2.70;99.90;;;;;;4999898;28;20380;-68
2021/03/07 06:50:24;;;;;;;7.15;4.47;;;2.30;99.90;;;;;;4998305;28;20384;-71
2021/03/07 06:52:57;;;;;;;6.55;4.70;;;3.10;99.90;;;;;;5001574;28;20919;-68
2021/03/07 06:55:26;;;;;;;7.05;4.60;;;2.00;99.90;;;;;;5001186;28;20424;-67
2021/03/07 06:57:52;;;;;;;6.43;5.20;;;3.50;99.90;;;;;;5002242;28;20425;-68
2021/03/07 07:00:36;;;;;;;7.90;5.40;;;2.70;99.90;;;;;;5002225;28;20428;-69
2021/03/07 07:03:13;;;;;;;4.43;4.03;;;2.40;99.90;;;;;;5004546;28;21085;-70
2021/03/07 07:05:47;;;;;;;6.47;4.95;;;2.50;99.90;;;;;;5004395;28;20815;-68
2021/03/07 07:08:15;;;;;;;7.20;4.97;;;1.70;99.90;;;;;;5002493;28;20403;-67
2021/03/07 07:10:55;;;;;;;5.95;5.10;;;2.90;99.90;;;;;;5001819;28;20475;-68
2021/03/07 07:13:25;;;;;;;6.73;4.97;;;2.60;99.90;;;;;;5003985;28;21379;-68
2021/03/07 07:16:03;;;;;;;6.35;4.80;;;2.70;99.90;;;;;;5004743;28;20388;-68
2021/03/07 07:18:32;;;;;;;7.95;5.75;;;2.80;99.90;;;;;;5003742;28;20491;-67
2021/03/07 07:20:59;;;;;;;6.38;5.30;;;2.80;99.90;;;;;;5000943;28;20419;-71
2021/03/07 07:23:27;;;;;;;7.35;4.97;;;2.80;99.90;;;;;;5003684;28;20488;-71
2021/03/07 07:25:53;;;;;;;6.50;4.97;;;2.90;99.90;;;;;;5004318;28;20428;-68
2021/03/07 07:28:20;;;;;;;5.45;4.65;;;4.50;99.90;;;;;;5002691;28;20381;-68
2021/03/07 07:31:12;;;;;;;6.50;5.47;;;3.50;99.90;;;;;;5001321;28;20425;-68
2021/03/07 07:33:46;;;;;;;7.03;5.45;;;3.10;99.90;;;;;;5002914;28;20995;-68
2021/03/07 07:36:28;;;;;;;8.10;5.65;;;3.30;99.90;;;;;;5003323;28;20438;-67
2021/03/07 07:38:57;;;;;;;6.13;5.32;;;3.30;99.90;;;;;;5003402;28;21025;-67
2021/03/07 07:41:33;;;;;;;7.18;5.57;;;3.50;99.90;;;;;;4999450;28;20431;-68
2021/03/07 07:44:00;;;;;;;7.90;5.78;;;4.10;99.90;;;;;;5004207;28;20504;-71
2021/03/07 07:46:26;;;;;;;6.70;5.25;;;3.50;99.90;;;;;;5003678;28;20421;-67
2021/03/07 07:48:52;;;;;;;6.00;5.40;;;5.00;99.90;;;;;;5001714;28;20387;-69
2021/03/07 07:51:39;;;;;;;6.70;4.90;;;4.30;99.90;;;;;;5001099;28;20542;-71
2021/03/07 07:54:07;;;;;;;7.47;5.75;;;4.30;99.90;;;;;;5003492;28;20396;-73
2021/03/07 07:56:33;;;;;;;6.97;5.10;;;4.00;99.90;;;;;;5002056;28;20407;-68
2021/03/07 07:58:58;;;;;;;6.05;5.28;;;4.90;99.90;;;;;;5002472;28;20397;-69
2021/03/07 08:01:49;;;;;;;6.43;5.25;;;4.30;99.90;;;;;;4999435;28;20391;-72
2021/03/07 08:04:27;;;;;;;6.50;5.38;;;3.90;99.90;;;;;;5003346;28;20435;-68
2021/03/07 08:06:56;;;;;;;8.10;6.00;;;4.00;99.90;;;;;;5003270;28;20455;-67
2021/03/07 08:09:40;;;;;;;7.90;5.45;;;3.60;99.90;;;;;;4999379;28;20404;-69
2021/03/07 08:12:42;;;;;;;10.40;5.78;;;4.90;99.90;;;;;;4997715;28;20389;-68
2021/03/07 08:15:28;;;;;;;7.97;6.00;;;3.50;99.90;;;;;;5000425;28;20400;-69
2021/03/07 08:17:59;;;;;;;6.63;5.57;;;4.30;99.90;;;;;;4998838;28;20471;-69
2021/03/07 08:20:42;;;;;;;7.10;5.73;;;3.80;99.90;;;;;;5001942;28;20879;-69
2021/03/07 08:23:10;;;;;;;7.70;5.65;;;4.80;99.90;;;;;;5002720;28;20553;-69
2021/03/07 08:25:51;;;;;;;8.30;5.75;;;4.40;99.90;;;;;;5002034;28;20484;-68
2021/03/07 08:28:29;;;;;;;7.97;5.65;;;4.00;99.90;;;;;;5014633;28;20427;-69
2021/03/07 08:30:55;;;;;;;9.48;5.93;;;4.20;99.90;;;;;;4998770;28;20440;-72
2021/03/07 08:33:26;;;;;;;8.07;5.70;;;4.20;99.90;;;;;;5000448;28;20409;-71
2021/03/07 08:36:10;;;;;;;9.32;5.93;;;4.10;99.90;;;;;;4998553;28;20404;-69
2021/03/07 08:38:57;;;;;;;9.13;6.10;;;4.40;99.90;;;;;;4998227;28;20501;-68
2021/03/07 08:41:31;;;;;;;8.20;6.22;;;5.10;99.90;;;;;;4993900;28;21042;-70
2021/03/07 08:43:58;;;;;;;7.18;5.97;;;5.10;99.90;;;;;;5018155;28;20492;-71
2021/03/07 08:46:28;;;;;;;6.28;5.65;;;4.60;99.90;;;;;;5001094;28;20977;-70
2021/03/07 08:49:06;;;;;;;6.75;5.72;;;6.20;99.90;;;;;;5001359;28;20396;-67
2021/03/07 08:51:35;;;;;;;7.25;5.90;;;5.10;99.90;;;;;;4995272;28;20397;-70
2021/03/07 08:54:15;;;;;;;7.50;5.80;;;6.00;99.90;;;;;;5016449;28;20739;-71
2021/03/07 08:56:42;;;;;;;6.80;6.10;;;6.00;99.90;;;;;;5001131;28;20401;-68
2021/03/07 08:59:10;;;;;;;7.10;6.30;;;5.70;99.20;;;;;;5000506;28;20434;-68
2021/03/07 09:01:36;;;;;;;7.07;6.13;;;5.80;99.90;;;;;;4997255;28;20876;-69
2021/03/07 09:04:04;;;;;;;8.80;6.50;;;5.60;99.90;;;;;;5001923;28;20782;-67
2021/03/07 09:06:35;;;;;;;7.50;6.10;;;5.50;98.60;;;;;;5001069;28;20546;-66
2021/03/07 09:09:11;;;;;;;9.65;6.60;;;6.20;98.20;;;;;;5001668;28;20861;-67
2021/03/07 09:11:44;;;;;;;9.20;6.35;;;5.50;98.80;;;;;;5002487;28;20920;-69
2021/03/07 09:14:09;;;;;;;7.53;6.40;;;6.10;99.90;;;;;;5011137;28;20438;-69
2021/03/07 09:16:42;;;;;;;7.10;5.80;;;5.60;99.90;;;;;;5010586;28;20865;-70
2021/03/07 09:19:22;;;;;;;7.70;5.88;;;6.00;96.50;;;;;;5009109;28;20392;-73
2021/03/07 09:22:13;;;;;;;8.15;6.80;;;5.70;94.10;;;;;;5012919;28;20423;-69
2021/03/07 09:24:49;;;;;;;7.55;6.20;;;5.90;93.70;;;;;;5022500;28;20395;-70
2021/03/07 09:27:15;;;;;;;6.82;5.97;;;6.00;95.20;;;;;;5009591;28;20449;-70
2021/03/07 09:30:14;;;;;;;8.60;7.13;;;6.10;95.70;;;;;;5014897;28;20818;-70
2021/03/07 09:32:48;;;;;;;7.93;6.30;;;7.10;95.60;;;;;;5012171;28;20877;-70
2021/03/07 09:35:27;;;;;;;8.10;6.70;;;6.50;95.40;;;;;;5024471;28;20751;-70
2021/03/07 09:38:08;;;;;;;9.32;6.43;;;6.20;92.40;;;;;;5011960;28;20392;-69
2021/03/07 09:40:40;;;;;;;8.07;6.00;;;6.00;92.40;;;;;;5020911;28;20384;-68
2021/03/07 09:43:09;;;;;;;7.25;6.55;;;6.40;99.30;;;;;;5014051;28;20384;-73
2021/03/07 09:45:38;;;;;;;7.00;6.13;;;7.40;95.20;;;;;;5026242;28;20462;-70
2021/03/07 09:48:06;;;;;;;8.23;6.17;;;7.30;97.80;;;;;;5016995;28;20406;-70
2021/03/07 09:50:32;;;;;;;8.48;6.68;;;7.50;93.70;;;;;;5018700;28;20419;-69
2021/03/07 09:52:58;;;;;;;8.07;6.60;;;8.10;95.10;;;;;;5024014;28;20731;-69
2021/03/07 09:55:26;;;;;;;8.05;6.20;;;7.00;93.20;;;;;;5026285;28;20450;-69
2021/03/07 09:58:02;;;;;;;9.20;6.43;;;7.30;93.40;;;;;;5028483;28;20454;-69
2021/03/07 10:00:30;;;;;;;7.75;6.20;;;6.80;93.20;;;;;;5008646;28;20385;-69
2021/03/07 10:02:56;;;;;;;7.28;6.15;;;7.30;98.20;;;;;;5010554;28;20385;-70
2021/03/07 10:05:22;;;;;;;7.70;6.60;;;6.40;96.20;;;;;;5008939;28;20408;-69
2021/03/07 10:07:48;;;;;;;12.45;6.60;;;7.00;93.80;;;;;;5009566;28;20377;-67
2021/03/07 10:10:24;;;;;;;9.13;6.40;;;7.50;93.40;;;;;;5009636;28;20474;-70
2021/03/07 10:13:00;;;;;;;10.23;7.10;;;7.30;90.90;;;;;;5010618;28;20389;-68
2021/03/07 10:15:34;;;;;;;7.57;6.70;;;7.90;97.90;;;;;;5009222;28;20781;-69
2021/03/07 10:18:16;;;;;;;7.17;6.17;;;7.60;96.60;;;;;;5010519;28;20393;-69
2021/03/07 10:20:44;;;;;;;8.05;6.93;;;7.70;92.50;;;;;;5010294;28;20400;-69
2021/03/07 10:23:10;;;;;;;10.00;6.95;;;8.70;98.20;;;;;;5009937;28;20398;-73
2021/03/07 10:25:41;;;;;;;11.90;6.90;;;8.20;98.80;;;;;;5010130;28;20412;-67
2021/03/07 10:28:09;;;;;;;10.00;7.18;;;8.00;99.50;;;;;;5010195;28;20450;-71
2021/03/07 10:30:40;;;;;;;9.70;6.85;;;8.80;98.40;;;;;;5011319;28;20468;-69
2021/03/07 10:33:15;;;;;;;11.35;7.28;;;9.00;99.90;;;;;;4995747;28;20918;-69
2021/03/07 10:36:10;;;;;;;11.20;8.30;;;8.90;99.90;;;;;;5002641;28;21031;-68
2021/03/07 10:38:43;;;;;;;9.95;7.82;;;8.10;99.00;;;;;;5005483;28;20416;-68
2021/03/07 10:41:22;;;;;;;8.95;6.95;;;8.60;99.90;;;;;;5003364;28;20447;-72
2021/03/07 10:43:58;;;;;;;8.52;7.45;;;9.00;96.50;;;;;;5006090;28;20432;-68
2021/03/07 10:46:33;;;;;;;9.90;6.75;;;9.30;96.10;;;;;;5002391;28;20933;-72
2021/03/07 10:49:01;;;;;;;9.25;6.95;;;8.40;93.10;;;;;;5005459;28;20384;-68
2021/03/07 10:51:29;;;;;;;8.50;7.65;;;9.00;98.00;;;;;;5003186;28;20393;-69
2021/03/07 10:53:55;;;;;;;10.85;7.78;;;9.50;99.90;;;;;;5005251;28;20396;-70
2021/03/07 10:56:27;;;;;;;10.33;8.03;;;9.30;96.70;;;;;;5003166;28;20479;-68
2021/03/07 10:58:52;;;;;;;9.45;7.25;;;9.70;99.70;;;;;;5004707;28;20419;-69
2021/03/07 11:01:18;;;;;;;9.50;8.13;;;9.20;96.30;;;;;;5006148;28;20381;-69
2021/03/07 11:03:44;;;;;;;10.87;7.90;;;9.30;96.40;;;;;;5004706;28;20416;-68
2021/03/07 11:06:10;;;;;;;9.52;7.40;;;9.10;95.20;;;;;;4998857;28;20566;-72
2021/03/07 11:08:37;;;;;;;9.13;7.68;;;9.80;99.30;;;;;;5004208;28;20388;-69
2021/03/07 11:11:04;;;;;;;10.35;7.75;;;10.30;93.80;;;;;;5004271;28;20404;-68
2021/03/07 11:13:30;;;;;;;11.00;7.93;;;9.60;92.10;;;;;;5002883;28;20460;-72
2021/03/07 11:15:55;;;;;;;9.80;7.30;;;10.50;86.90;;;;;;5003089;28;20888;-69
2021/03/07 11:18:21;;;;;;;10.40;8.13;;;10.00;85.30;;;;;;5017447;28;20882;-69
2021/03/07 11:20:48;;;;;;;9.70;7.22;;;10.20;90.20;;;;;;5004298;28;20542;-69
2021/03/07 11:23:15;;;;;;;12.60;7.83;;;10.80;83.20;;;;;;5004419;28;20401;-69
2021/03/07 11:25:41;;;;;;;10.35;8.65;;;11.10;84.40;;;;;;5002471;28;20420;-68
2021/03/07 11:28:07;;;;;;;9.35;7.75;;;10.90;91.90;;;;;;5006213;28;20408;-71
2021/03/07 11:30:33;;;;;;;11.05;8.07;;;11.10;90.50;;;;;;5019509;28;20408;-69
2021/03/07 11:32:59;;;;;;;12.30;7.90;;;11.20;89.30;;;;;;5004855;28;20420;-68
2021/03/07 11:35:24;;;;;;;11.03;7.87;;;11.50;88.90;;;;;;5000340;28;20405;-71
2021/03/07 11:37:54;;;;;;;11.23;9.40;;;11.90;95.10;;;;;;5004319;28;20404;-70
2021/03/07 11:40:20;;;;;;;11.70;7.95;;;12.10;92.30;;;;;;5003362;28;20399;-68
2021/03/07 11:42:45;;;;;;;12.20;8.07;;;12.70;90.80;;;;;;5001930;28;20428;-68
2021/03/07 11:45:11;;;;;;;10.87;8.20;;;13.00;93.00;;;;;;5002133;28;20379;-72
2021/03/07 11:47:37;;;;;;;11.50;8.50;;;13.20;86.10;;;;;;5002949;28;20399;-68
2021/03/07 11:50:06;;;;;;;12.15;8.27;;;11.90;88.90;;;;;;5005388;28;20472;-68
2021/03/07 11:52:32;;;;;;;13.55;8.63;;;11.80;90.40;;;;;;5002456;28;20407;-72
2021/03/07 11:54:58;;;;;;;14.17;9.30;;;11.70;97.20;;;;;;5002892;28;20427;-69
2021/03/07 11:57:23;;;;;;;12.48;9.40;;;11.70;93.30;;;;;;5016510;28;20494;-68
2021/03/07 11:59:49;;;;;;;13.18;9.10;;;12.20;92.80;;;;;;5004451;28;20435;-69
2021/03/07 12:02:15;;;;;;;11.88;9.15;;;12.00;94.60;;;;;;5003481;28;20466;-68
2021/03/07 12:04:41;;;;;;;14.00;10.20;;;12.50;92.30;;;;;;5000259;28;20384;-72
2021/03/07 12:07:06;;;;;;;11.57;9.38;;;11.90;95.60;;;;;;5004579;28;20423;-69
2021/03/07 12:09:32;;;;;;;13.93;9.40;;;11.70;93.10;;;;;;5002895;28;20816;-68
2021/03/07 12:11:58;;;;;;;12.70;9.30;;;11.80;93.00;;;;;;5005162;28;21025;-69
2021/03/07 12:14:24;;;;;;;14.18;10.48;;;12.00;96.50;;;;;;5016839;28;20401;-71
2021/03/07 12:16:50;;;;;;;14.50;10.90;;;11.20;96.00;;;;;;5002703;28;21364;-69
2021/03/07 12:19:16;;;;;;;13.13;9.57;;;11.70;94.60;;;;;;5002201;28;20582;-71
2021/03/07 12:21:41;;;;;;;15.40;10.95;;;12.10;93.50;;;;;;5003716;28;20425;-69
2021/03/07 12:24:08;;;;;;;13.80;10.13;;;12.20;96.40;;;;;;5007936;28;21006;-69
2021/03/07 12:26:33;;;;;;;13.70;11.27;;;12.40;92.80;;;;;;5000045;28;21106;-69
2021/03/07 12:28:59;;;;;;;19.00;10.50;;;12.50;94.40;;;;;;5002834;28;20476;-70
2021/03/07 12:31:24;;;;;;;16.92;10.00;;;13.00;98.90;;;;;;5000707;28;20492;-68
2021/03/07 12:33:50;;;;;;;14.48;10.60;;;12.80;93.60;;;;;;5001958;28;20479;-69
2021/03/07 12:36:16;;;;;;;15.50;10.88;;;12.30;94.30;;;;;;5000434;28;20869;-71
2021/03/07 12:38:42;;;;;;;14.70;10.70;;;11.90;95.70;;;;;;5001792;28;20534;-67
2021/03/07 12:41:07;;;;;;;16.15;10.95;;;11.70;94.90;;;;;;5001638;28;20411;-71
2021/03/07 12:43:33;;;;;;;15.20;10.60;;;11.00;99.90;;;;;;5002315;28;20376;-69
2021/03/07 12:45:59;;;;;;;15.10;10.20;;;11.60;96.10;;;;;;5000707;28;20508;-68
2021/03/07 12:48:24;;;;;;;15.63;10.40;;;11.20;95.50;;;;;;5000955;28;20393;-69
2021/03/07 12:50:50;;;;;;;12.90;10.03;;;11.60;99.90;;;;;;5002994;28;20518;-70
2021/03/07 12:53:16;;;;;;;15.00;11.30;;;11.20;96.70;;;;;;5000444;28;20449;-70
2021/03/07 12:55:41;;;;;;;14.93;10.88;;;11.20;96.50;;;;;;4998672;28;20443;-69
2021/03/07 12:58:07;;;;;;;13.70;10.60;;;11.30;99.60;;;;;;5002931;28;20393;-68
2021/03/07 13:00:32;;;;;;;15.95;10.20;;;12.00;96.40;;;;;;5000581;28;20496;-68
2021/03/07 13:02:58;;;;;;;12.80;10.38;;;11.10;96.20;;;;;;5001490;28;20393;-70